createdAt,value
2018-03-27T08:12:35.795Z,101003.50
2018-03-27T08:15:03.938Z,101005.17
2018-03-27T08:17:32.076Z,101000.30
2018-03-27T08:20:00.228Z,101002.95
2018-03-27T08:22:32.233Z,100998.34
2018-03-27T08:25:00.369Z,100998.21
2018-03-27T08:27:29.188Z,100993.89
2018-03-27T08:29:57.366Z,100984.00
2018-03-27T08:32:25.588Z,100984.09
2018-03-27T08:34:57.105Z,100983.58
2018-03-27T08:37:25.242Z,100978.52
2018-03-27T08:39:57.847Z,100971.55
2018-03-27T08:42:26.035Z,100964.98
2018-03-27T08:44:54.296Z,100952.73
2018-03-27T08:47:26.306Z,100950.06
2018-03-27T08:49:57.771Z,100949.98
2018-03-27T08:52:26.014Z,100945.95
2018-03-27T08:54:54.266Z,100943.91
2018-03-27T08:57:22.451Z,100940.78
2018-03-27T08:59:53.738Z,100936.34
2018-03-27T09:02:22.769Z,100941.47
2018-03-27T09:04:51.051Z,100943.58
2018-03-27T09:07:19.197Z,100942.74
2018-03-27T09:09:47.360Z,100941.28
2018-03-27T09:12:17.478Z,100942.63
2018-03-27T09:14:45.649Z,100930.55
2018-03-27T09:17:15.769Z,100940.47
2018-03-27T09:19:43.954Z,100935.55
2018-03-27T09:22:17.284Z,100934.83
2018-03-27T09:24:45.512Z,100937.93
2018-03-27T09:27:14.620Z,100928.47
2018-03-27T09:29:49.119Z,100924.25
2018-03-27T09:32:17.354Z,100921.05
2018-03-27T09:34:45.495Z,100920.53
2018-03-27T09:37:13.640Z,100918.29
2018-03-27T09:39:42.951Z,100921.70
2018-03-27T09:42:11.147Z,100912.38
2018-03-27T09:44:39.325Z,100902.23
2018-03-27T09:47:07.454Z,100902.28
2018-03-27T09:49:35.625Z,100895.36
2018-03-27T09:52:03.788Z,100887.52
2018-03-27T09:54:32.122Z,100883.89
2018-03-27T09:57:00.284Z,100884.37
2018-03-27T09:59:28.589Z,100883.67
2018-03-27T10:01:56.900Z,100880.59
2018-03-27T10:04:25.105Z,100868.61
2018-03-27T10:06:53.263Z,100873.65
2018-03-27T10:09:21.919Z,100875.90
2018-03-27T10:11:50.112Z,100870.77
2018-03-27T10:14:18.261Z,100864.84
2018-03-27T10:16:46.420Z,100863.83
2018-03-27T10:19:14.598Z,100868.22
2018-03-27T10:21:42.750Z,100859.98
2018-03-27T10:24:10.923Z,100859.18
2018-03-27T10:26:39.064Z,100857.36
2018-03-27T10:29:07.263Z,100857.27
2018-03-27T10:31:35.735Z,100842.30
2018-03-27T10:34:03.962Z,100845.29
2018-03-27T10:36:32.186Z,100841.48
2018-03-27T10:39:00.336Z,100829.33
2018-03-27T10:41:28.798Z,100818.56
2018-03-27T10:43:57.040Z,100814.76
2018-03-27T10:46:25.173Z,100815.22
2018-03-27T10:48:53.426Z,100810.70
2018-03-27T10:51:21.666Z,100800.28
2018-03-27T10:53:49.833Z,100790.94
2018-03-27T10:56:18.094Z,100786.98
2018-03-27T10:58:46.243Z,100782.69
2018-03-27T11:01:14.394Z,100784.20
2018-03-27T11:03:42.565Z,100774.52
2018-03-27T11:06:10.811Z,100769.78
2018-03-27T11:08:38.967Z,100769.20
2018-03-27T11:11:07.146Z,100752.97
2018-03-27T11:13:35.409Z,100758.00
2018-03-27T11:16:03.709Z,100757.53
2018-03-27T11:18:31.853Z,100755.87
2018-03-27T11:21:00.016Z,100744.53
2018-03-27T11:23:28.636Z,100745.61
2018-03-27T11:25:56.860Z,100740.73
2018-03-27T11:28:25.065Z,100745.66
2018-03-27T11:30:53.203Z,100742.72
2018-03-27T11:33:21.352Z,100737.98
2018-03-27T11:35:49.600Z,100733.20
2018-03-27T11:38:17.723Z,100728.67
2018-03-27T11:40:46.435Z,100726.95
2018-03-27T11:43:14.612Z,100724.69
2018-03-27T11:45:42.992Z,100719.42
2018-03-27T11:48:11.342Z,100718.70
2018-03-27T11:50:39.536Z,100713.52
2018-03-27T11:53:07.689Z,100708.45
2018-03-27T11:55:36.056Z,100708.70
2018-03-27T11:58:04.282Z,100699.88
2018-03-27T12:00:32.430Z,100697.03
2018-03-27T12:03:00.775Z,100685.69
2018-03-27T12:05:28.953Z,100687.02
2018-03-27T12:07:57.119Z,100683.66
2018-03-27T12:10:25.409Z,100672.34
2018-03-27T12:12:53.613Z,100666.92
2018-03-27T12:15:21.738Z,100668.62
2018-03-27T12:17:49.962Z,100663.36
2018-03-27T12:20:18.185Z,100660.13
2018-03-27T12:22:46.415Z,100659.90
2018-03-27T12:25:14.599Z,100654.12
2018-03-27T12:27:42.776Z,100642.75
2018-03-27T12:30:11.020Z,100640.22
2018-03-27T12:32:39.237Z,100637.47
2018-03-27T12:35:07.409Z,100624.83
2018-03-27T12:37:35.608Z,100620.69
2018-03-27T12:40:03.796Z,100628.77
2018-03-27T12:42:31.981Z,100626.00
2018-03-27T12:45:00.166Z,100616.28
2018-03-27T12:47:28.325Z,100613.77
2018-03-27T12:49:56.465Z,100610.53
2018-03-27T12:52:24.659Z,100607.28
2018-03-27T12:54:52.829Z,100599.95
2018-03-27T12:57:21.043Z,100598.38
2018-03-27T12:59:49.332Z,100598.02
2018-03-27T13:02:17.476Z,100593.44
2018-03-27T13:04:45.614Z,100577.72
2018-03-27T13:07:13.786Z,100586.38
2018-03-27T13:09:41.934Z,100574.00
2018-03-27T13:12:10.122Z,100566.36
2018-03-27T13:14:38.267Z,100566.94
2018-03-27T13:17:06.473Z,100575.02
2018-03-27T13:19:34.647Z,100559.78
2018-03-27T13:22:02.790Z,100567.28
2018-03-27T13:24:30.957Z,100562.25
2018-03-27T13:26:59.106Z,100561.50
2018-03-27T13:29:27.274Z,100554.72
2018-03-27T15:38:37.179Z,100378.94
2018-03-27T15:41:05.393Z,100380.62
2018-03-27T15:43:33.545Z,100378.25
2018-03-27T15:46:01.680Z,100374.70
2018-03-27T15:48:29.847Z,100377.64
2018-03-27T15:50:58.011Z,100382.83
2018-03-27T15:53:26.167Z,100381.66
2018-03-27T15:55:54.313Z,100379.48
2018-03-27T15:58:22.459Z,100375.64
2018-03-27T16:00:50.635Z,100375.03
2018-03-27T16:03:18.791Z,100374.67
2018-03-27T16:05:46.962Z,100366.98
2018-03-27T16:08:15.105Z,100363.27
2018-03-27T16:10:43.261Z,100368.48
2018-03-27T16:13:11.408Z,100358.99
2018-03-27T16:15:39.667Z,100356.87
2018-03-27T16:18:07.816Z,100357.55
2018-03-27T16:20:35.983Z,100350.69
2018-03-27T16:23:04.141Z,100357.38
2018-03-27T16:25:32.274Z,100351.49
2018-03-27T16:28:00.405Z,100351.55
2018-03-27T16:30:28.570Z,100353.25
2018-03-27T16:32:56.728Z,100345.20
2018-03-27T16:35:24.878Z,100348.92
2018-03-27T16:37:53.062Z,100345.16
2018-03-27T16:40:21.217Z,100345.34
2018-03-27T16:42:49.406Z,100346.06
2018-03-27T16:45:17.542Z,100339.39
2018-03-27T16:47:45.692Z,100340.80
2018-03-27T16:50:13.863Z,100344.09
2018-03-27T16:52:42.005Z,100335.75
2018-03-27T16:55:10.154Z,100326.80
2018-03-27T16:57:38.308Z,100339.42
2018-03-27T17:00:06.494Z,100334.67
2018-03-27T17:02:35.578Z,100330.98
2018-03-27T17:05:03.775Z,100335.61
2018-03-27T17:07:31.949Z,100334.39
2018-03-27T17:10:00.089Z,100329.16
2018-03-27T17:12:28.233Z,100324.87
2018-03-27T17:14:56.401Z,100325.10
2018-03-27T17:17:24.533Z,100326.75
2018-03-27T17:19:52.676Z,100331.09
2018-03-27T17:22:20.830Z,100328.04
2018-03-27T17:24:48.975Z,100324.01
2018-03-27T17:27:17.113Z,100315.14
2018-03-27T17:29:45.305Z,100316.48
2018-03-27T17:32:13.444Z,100318.52
2018-03-27T17:34:41.627Z,100318.93
2018-03-27T17:37:09.788Z,100316.84
2018-03-27T17:39:37.891Z,100313.31
2018-03-27T17:42:06.044Z,100305.18
2018-03-27T17:44:34.183Z,100309.70
2018-03-27T17:47:02.324Z,100305.89
2018-03-27T17:49:30.508Z,100301.98
2018-03-27T17:51:58.654Z,100301.59
2018-03-27T17:54:26.787Z,100295.31
2018-03-27T17:56:54.968Z,100295.52
2018-03-27T17:59:23.090Z,100296.93
2018-03-27T18:01:51.254Z,100300.28
2018-03-27T18:04:19.409Z,100299.61
2018-03-27T18:06:47.556Z,100306.70
2018-03-27T18:09:15.705Z,100303.62
2018-03-27T18:11:43.869Z,100301.39
2018-03-27T18:14:12.011Z,100288.77
2018-03-27T18:16:40.162Z,100291.97
2018-03-27T18:19:08.302Z,100297.11
2018-03-27T18:21:36.872Z,100295.31
2018-03-27T18:24:05.035Z,100301.75
2018-03-27T18:26:33.188Z,100288.70
2018-03-27T18:29:01.323Z,100296.25
2018-03-27T18:31:29.565Z,100281.77
2018-03-27T18:33:57.690Z,100289.66
2018-03-27T18:36:25.838Z,100276.13
2018-03-27T18:38:53.950Z,100273.33
2018-03-27T18:41:22.096Z,100274.25
2018-03-27T18:43:50.268Z,100266.77
2018-03-27T18:46:18.426Z,100268.80
2018-03-27T18:48:46.558Z,100268.33
2018-03-27T18:51:14.696Z,100259.23
2018-03-27T18:53:42.820Z,100258.67
2018-03-27T18:56:10.965Z,100257.45
2018-03-27T18:58:39.131Z,100254.50
2018-03-27T19:01:07.284Z,100255.60
2018-03-27T19:03:35.398Z,100245.38
2018-03-27T19:06:07.174Z,100246.08
2018-03-27T19:08:35.330Z,100240.94
2018-03-27T19:11:03.488Z,100250.49
2018-03-27T19:13:31.705Z,100242.16
2018-03-27T19:15:59.953Z,100243.33
2018-03-27T19:18:28.096Z,100238.06
2018-03-27T19:20:56.277Z,100243.09
2018-03-27T19:23:24.387Z,100235.77
2018-03-27T19:25:52.567Z,100229.59
2018-03-27T19:28:20.717Z,100231.54
2018-03-27T19:30:48.917Z,100228.84
2018-03-27T19:33:17.063Z,100227.50
2018-03-27T19:35:45.190Z,100224.02
2018-03-27T19:38:13.312Z,100215.95
2018-03-27T19:40:41.748Z,100211.39
2018-03-27T19:43:13.744Z,100211.08
2018-03-27T19:45:42.240Z,100214.63
2018-03-27T19:48:11.423Z,100213.20
2018-03-27T19:50:41.416Z,100202.87
2018-03-27T19:53:09.565Z,100206.08
2018-03-27T19:55:37.700Z,100202.95
2018-03-27T19:58:09.561Z,100195.33
2018-03-27T20:00:37.706Z,100194.34
2018-03-27T20:03:05.852Z,100187.74
2018-03-27T20:05:33.995Z,100191.35
2018-03-27T20:08:02.167Z,100192.45
2018-03-27T20:10:30.306Z,100191.11
2018-03-27T20:12:58.444Z,100181.36
2018-03-27T20:15:26.739Z,100176.88
2018-03-27T20:17:55.056Z,100174.68
2018-03-27T20:20:23.314Z,100177.31
2018-03-27T20:22:51.446Z,100169.75
2018-03-27T20:25:19.591Z,100173.05
2018-03-27T20:27:47.746Z,100169.44
2018-03-27T20:30:19.951Z,100165.84
2018-03-27T20:32:48.322Z,100162.34
2018-03-27T20:35:18.106Z,100163.39
2018-03-27T20:37:47.325Z,100155.88
2018-03-27T20:40:16.487Z,100159.97
2018-03-27T20:42:46.567Z,100154.97
2018-03-27T20:45:15.241Z,100149.73
2018-03-27T20:47:43.928Z,100144.10
2018-03-27T20:50:12.222Z,100149.11
2018-03-27T20:52:40.902Z,100150.34
2018-03-27T20:55:10.785Z,100147.54
2018-03-27T20:57:40.320Z,100138.04
2018-03-27T21:00:11.695Z,100137.69
2018-03-27T21:02:40.155Z,100141.69
2018-03-27T21:05:08.332Z,100137.34
2018-03-27T21:07:36.477Z,100135.52
2018-03-27T21:10:04.630Z,100130.89
2018-03-27T21:12:32.768Z,100133.62
2018-03-27T21:15:02.880Z,100129.55
2018-03-27T21:17:32.570Z,100129.91
2018-03-27T21:20:03.054Z,100121.65
2018-03-27T21:22:33.446Z,100129.13
2018-03-27T21:25:05.722Z,100119.33
2018-03-27T21:27:36.689Z,100121.39
2018-03-27T21:30:07.111Z,100133.27
2018-03-27T21:32:35.418Z,100121.81
2018-03-27T21:35:03.579Z,100114.59
2018-03-27T21:37:31.733Z,100121.56
2018-03-27T21:39:59.913Z,100129.17
2018-03-27T21:42:28.061Z,100124.38
2018-03-27T21:44:56.219Z,100121.57
2018-03-27T21:47:24.435Z,100116.62
2018-03-27T21:49:52.574Z,100121.39
2018-03-27T21:52:20.724Z,100120.41
2018-03-27T21:54:48.844Z,100116.21
2018-03-27T21:57:17.002Z,100111.14
2018-03-27T21:59:45.162Z,100110.12
2018-03-27T22:02:13.300Z,100107.08
2018-03-27T22:04:41.445Z,100109.89
2018-03-27T22:07:09.646Z,100106.33
2018-03-27T22:09:37.943Z,100104.00
2018-03-27T22:12:06.089Z,100105.05
2018-03-27T22:14:34.241Z,100100.03
2018-03-27T22:17:02.446Z,100104.09
2018-03-27T22:19:30.610Z,100101.73
2018-03-27T22:21:58.767Z,100097.58
2018-03-27T22:24:26.952Z,100101.06
2018-03-27T22:26:55.062Z,100098.81
2018-03-27T22:29:23.300Z,100096.92
2018-03-27T22:31:54.739Z,100100.16
2018-03-27T22:34:22.911Z,100095.77
2018-03-27T22:36:51.077Z,100101.13
2018-03-27T22:39:19.225Z,100097.22
2018-03-27T22:41:47.368Z,100086.24
2018-03-27T22:44:15.494Z,100091.86
2018-03-27T22:46:43.617Z,100092.95
2018-03-27T22:49:11.772Z,100086.92
2018-03-27T22:51:39.951Z,100092.59
2018-03-27T22:54:08.117Z,100089.95
2018-03-27T22:56:36.259Z,100089.18
2018-03-27T22:59:04.404Z,100092.69
2018-03-27T23:01:32.576Z,100089.62
2018-03-27T23:04:00.734Z,100087.66
2018-03-27T23:06:28.884Z,100084.77
2018-03-27T23:08:57.038Z,100093.52
2018-03-27T23:11:25.188Z,100084.73
2018-03-27T23:13:53.345Z,100089.91
2018-03-27T23:16:21.490Z,100088.84
2018-03-27T23:18:49.701Z,100092.42
2018-03-27T23:21:17.862Z,100091.30
2018-03-27T23:23:46.005Z,100089.60
2018-03-27T23:26:14.146Z,100085.92
2018-03-27T23:28:42.298Z,100095.27
2018-03-27T23:31:10.419Z,100090.05
2018-03-27T23:33:38.585Z,100096.16
2018-03-27T23:36:06.705Z,100099.70
2018-03-27T23:38:34.864Z,100107.19
2018-03-27T23:41:03.010Z,100097.34
2018-03-27T23:43:31.163Z,100102.60
2018-03-27T23:45:59.369Z,100102.00
2018-03-27T23:48:27.482Z,100103.56
2018-03-27T23:50:55.626Z,100102.38
2018-03-27T23:53:23.813Z,100106.34
2018-03-27T23:55:52.043Z,100110.09
2018-03-27T23:58:20.198Z,100105.06
